• Join FlightAware (Why Join?)
  • Login
  • US Flag 
11:49PM EDT


 

Airport Tracker/Info


-or-


 

Live Flight TrackerFlight Track Log ✈ CTL18 ✈ 16-Jul-2013 ✈ KYIP - KBKL

Flight Track Log - Related Links

Times and Time Zones

All times are in EDT time to prevent confusion due to time zone crossing. See the CTL18 flight status page for this flight to view local times or setup timezone preferences in your user account.

Time Position Orientation Groundspeed Altitude Reporting Facility
EDT Latitude Longitude Course Direction KTS MPH feet Rate Location/Type
09:06PM 42.1936 -83.5878 223° Southwest 133 153 1,900  Level Cleveland Center
09:07PM 42.1553 -83.6167 209° Southwest 165 190 2,300 360 Climbing Cleveland Center
09:08PM 42.1139 -83.6119 175° South 164 189 2,700 360 Climbing Cleveland Center
09:09PM 42.0742 -83.6100 178° South 162 186 3,000 120 Climbing Cleveland Center
09:10PM 42.0144 -83.5847 163° South 177 204 3,000  Level Cleveland Center
09:11PM 42.0031 -83.5397 109° East 172 198 3,000  Level Cleveland Center
09:12PM 41.9819 -83.4714 113° Southeast 179 206 3,000  Level Cleveland Center
09:13PM 41.9650 -83.4039 109° East 176 203 3,000  Level Cleveland Center
09:14PM 41.9492 -83.3583 115° Southeast 178 205 3,000  Level Cleveland Center
09:15PM 41.9281 -83.2850 111° Southeast 179 206 3,000 120 Level Cleveland Center
09:16PM 41.9131 -83.2200 107° East 174 200 3,400 300 Climbing Cleveland Center
09:17PM 41.8953 -83.1664 114° Southeast 175 201 3,700 300 Climbing Cleveland Center
09:18PM 41.8781 -83.0986 109° East 174 200 4,100 300 Climbing Cleveland Center
09:20PM 41.8608 -83.0311 109° East 173 199 4,500 360 Climbing Cleveland Center
09:21PM 41.8353 -82.9547 114° Southeast 171 197 5,000 240 Climbing Cleveland Center
09:22PM 41.8161 -82.8817 109° East 175 201 5,100  Climbing Cleveland Center
09:23PM 41.8025 -82.8256 108° East 183 211 5,100 -60 Level Cleveland Center
09:24PM 41.7831 -82.7525 110° East 180 207 5,000 -60 Descending Cleveland Center
09:25PM 41.7653 -82.6933 112° Southeast 175 201 5,000  Level Cleveland Center
09:26PM 41.7539 -82.6344 105° East 175 201 5,100  Climbing Cleveland Center
09:27PM 41.7344 -82.5672 111° Southeast 175 201 5,000 -60 Descending Cleveland Center
09:28PM 41.7147 -82.4969 111° Southeast 176 203 5,000  Level Cleveland Center
09:29PM 41.6992 -82.4325 108° East 179 206 5,000 -120 Level Cleveland Center
09:30PM 41.6792 -82.3653 112° Southeast 183 211 4,800 -420 Descending Cleveland Center
09:31PM 41.6678 -82.3064 104° East 191 220 4,200 -840 Descending Cleveland Center
09:32PM 41.6519 -82.2367 107° East 204 235 3,300 -660 Descending Cleveland Center
09:33PM 41.6281 -82.1556 111° Southeast 196 226 2,900 -420 Descending Cleveland Center
09:34PM 41.6144 -82.0939 106° East 184 212 2,500 -480 Descending Cleveland Center
09:35PM 41.5986 -82.0242 107° East 195 224 2,000 -420 Descending Cleveland Center
09:36PM 41.5806 -81.9600 111° Southeast 185 213 1,700 -240 Descending Cleveland Center
09:37PM 41.5628 -81.8903 109° East 181 208 1,600 -60 Descending Cleveland Center
09:38PM 41.5444 -81.8317 113° Southeast 172 198 1,600  Level Cleveland Center
09:39PM 41.5264 -81.7758 113° Southeast 166 191 1,600 -120 Level Cleveland Center
09:40PM 41.5103 -81.7256 113° Southeast 153 176 1,400 -240 Descending Cleveland Center